createdAt,value
2023-05-22T00:00:52.183Z,49.13
2023-05-22T00:01:52.377Z,49.19
2023-05-22T00:02:52.684Z,49.39
2023-05-22T00:03:52.646Z,49.78
2023-05-22T00:04:52.887Z,49.17
2023-05-22T00:05:53.019Z,49.53
2023-05-22T00:06:53.912Z,49.84
2023-05-22T00:07:53.310Z,49.49
2023-05-22T00:08:53.463Z,49.58
2023-05-22T00:09:53.606Z,49.47
2023-05-22T00:10:53.762Z,49.40
2023-05-22T00:11:53.920Z,49.27
2023-05-22T00:12:54.077Z,49.05
2023-05-22T00:13:54.306Z,48.94
2023-05-22T00:14:54.520Z,49.44
2023-05-22T00:15:54.709Z,49.28
2023-05-22T00:16:54.936Z,49.49
2023-05-22T00:17:55.082Z,49.55
2023-05-22T00:18:55.283Z,49.83
2023-05-22T00:19:55.445Z,49.66
2023-05-22T00:20:55.623Z,49.54
2023-05-22T00:21:55.843Z,49.44
2023-05-22T00:22:55.938Z,49.67
2023-05-22T00:23:56.110Z,49.69
2023-05-22T00:24:56.241Z,49.57
2023-05-22T00:25:56.395Z,49.55
2023-05-22T00:26:56.543Z,49.49
2023-05-22T00:27:56.653Z,49.56
2023-05-22T00:28:56.788Z,49.46
2023-05-22T00:29:56.973Z,49.83
2023-05-22T00:30:57.211Z,49.64
2023-05-22T00:31:57.353Z,49.69
2023-05-22T00:32:57.549Z,49.96
2023-05-22T00:33:57.636Z,50.02
2023-05-22T00:34:57.784Z,49.71
2023-05-22T00:35:57.911Z,49.95
2023-05-22T00:36:58.098Z,49.82
2023-05-22T00:37:58.349Z,50.81
2023-05-22T00:38:58.467Z,50.50
2023-05-22T00:39:58.647Z,50.22
2023-05-22T00:40:58.901Z,50.31
2023-05-22T00:41:58.993Z,50.58
2023-05-22T00:42:59.171Z,50.17
2023-05-22T00:43:59.328Z,50.14
2023-05-22T00:44:59.545Z,50.27
2023-05-22T00:45:59.638Z,50.17
2023-05-22T00:46:59.910Z,50.14
2023-05-22T00:47:59.966Z,50.19
2023-05-22T00:49:00.184Z,49.98
2023-05-22T00:50:00.294Z,50.24
2023-05-22T00:51:00.443Z,50.33
2023-05-22T00:52:00.609Z,49.98
2023-05-22T00:53:00.752Z,50.11
2023-05-22T00:54:00.933Z,50.26
2023-05-22T00:55:01.038Z,50.42
2023-05-22T00:56:01.272Z,50.46
2023-05-22T00:57:01.526Z,50.32
2023-05-22T00:58:01.661Z,50.41
2023-05-22T00:59:01.889Z,50.15
2023-05-22T01:00:01.953Z,50.20
2023-05-22T01:01:02.104Z,50.05
2023-05-22T01:02:02.280Z,50.25
2023-05-22T01:03:02.544Z,50.35
2023-05-22T01:04:02.972Z,50.38
2023-05-22T01:05:02.930Z,50.59
2023-05-22T01:06:03.150Z,51.40
2023-05-22T01:07:03.353Z,51.13
2023-05-22T01:08:03.465Z,50.91
2023-05-22T01:09:03.730Z,50.60
2023-05-22T01:10:03.836Z,50.56
2023-05-22T01:11:03.992Z,50.92
2023-05-22T01:12:04.143Z,51.28
2023-05-22T01:13:04.338Z,51.18
2023-05-22T01:14:05.508Z,50.46
2023-05-22T01:15:04.731Z,50.54
2023-05-22T01:16:04.899Z,50.38
2023-05-22T01:17:05.013Z,50.94
2023-05-22T01:18:05.173Z,50.54
2023-05-22T01:19:05.326Z,50.36
2023-05-22T01:20:05.723Z,50.81
2023-05-22T01:21:05.790Z,51.03
2023-05-22T01:22:06.033Z,50.82
2023-05-22T01:23:06.265Z,50.92
2023-05-22T01:24:06.655Z,50.90
2023-05-22T01:25:06.636Z,50.72
2023-05-22T01:26:06.773Z,50.79
2023-05-22T01:27:06.989Z,50.78
2023-05-22T01:28:07.070Z,51.01
2023-05-22T01:29:07.225Z,51.10
2023-05-22T01:30:07.409Z,50.70
2023-05-22T01:31:07.651Z,50.81
2023-05-22T01:32:07.787Z,50.78
2023-05-22T01:33:08.062Z,50.79
2023-05-22T01:34:08.127Z,50.78
2023-05-22T01:35:08.204Z,50.96
2023-05-22T01:36:08.363Z,50.92
2023-05-22T01:37:08.502Z,50.99
2023-05-22T01:38:08.653Z,51.01
2023-05-22T01:39:08.785Z,50.74
2023-05-22T01:40:08.922Z,50.66
2023-05-22T01:41:09.188Z,50.51
2023-05-22T01:42:09.320Z,50.48
2023-05-22T01:43:09.465Z,50.45
2023-05-22T01:44:09.613Z,50.29
2023-05-22T01:45:09.766Z,50.16
2023-05-22T01:46:10.000Z,50.27
2023-05-22T01:47:10.118Z,50.83
2023-05-22T01:48:10.348Z,50.76
2023-05-22T01:49:10.393Z,49.89
2023-05-22T01:50:10.599Z,50.22
2023-05-22T01:51:10.778Z,50.84
2023-05-22T01:52:10.964Z,50.92
2023-05-22T01:53:11.145Z,51.40
2023-05-22T01:54:11.313Z,51.55
2023-05-22T01:55:11.497Z,51.21
2023-05-22T01:56:11.689Z,50.95
2023-05-22T01:57:11.861Z,50.66
2023-05-22T01:58:12.092Z,50.62
2023-05-22T01:59:12.359Z,50.92
2023-05-22T02:00:12.516Z,51.53
2023-05-22T02:01:12.727Z,51.50
2023-05-22T02:02:13.048Z,51.40
2023-05-22T02:03:13.373Z,51.26
2023-05-22T02:04:13.311Z,51.25
2023-05-22T02:05:13.506Z,51.30
2023-05-22T02:06:13.681Z,51.34
2023-05-22T02:07:13.958Z,51.26
2023-05-22T02:08:14.047Z,51.35
2023-05-22T02:09:14.217Z,51.26
2023-05-22T02:10:14.410Z,51.26
2023-05-22T02:11:14.573Z,51.39
2023-05-22T02:12:14.767Z,51.19
2023-05-22T02:13:14.949Z,50.80
2023-05-22T02:14:15.132Z,51.60
2023-05-22T02:15:15.979Z,52.31
2023-05-22T02:16:16.546Z,51.69
2023-05-22T02:17:15.747Z,51.99
2023-05-22T02:18:16.029Z,52.10
2023-05-22T02:19:16.156Z,51.69
2023-05-22T02:20:16.326Z,51.68
2023-05-22T02:21:16.506Z,51.78
2023-05-22T02:22:16.693Z,51.89
2023-05-22T02:23:16.883Z,51.91
2023-05-22T02:24:17.017Z,51.82
2023-05-22T02:25:17.561Z,51.66
2023-05-22T02:26:17.379Z,51.48
2023-05-22T02:27:17.625Z,51.39
2023-05-22T02:28:17.723Z,51.42
2023-05-22T02:29:17.884Z,51.58
2023-05-22T02:30:18.099Z,51.60
2023-05-22T02:31:18.320Z,51.54
2023-05-22T02:32:18.416Z,51.84
2023-05-22T02:33:18.590Z,51.68
2023-05-22T02:34:18.760Z,51.83
2023-05-22T02:35:18.943Z,51.28
2023-05-22T02:36:19.223Z,51.43
2023-05-22T02:37:19.314Z,51.45
2023-05-22T02:38:19.497Z,51.56
2023-05-22T02:39:19.696Z,51.61
2023-05-22T02:40:19.842Z,51.56
2023-05-22T02:41:20.007Z,51.55
2023-05-22T02:42:20.194Z,51.51
2023-05-22T02:43:20.368Z,51.46
2023-05-22T02:44:21.514Z,51.55
2023-05-22T02:45:20.697Z,51.63
2023-05-22T02:46:20.931Z,51.72
2023-05-22T02:47:22.026Z,51.72
2023-05-22T02:48:21.170Z,51.80
2023-05-22T02:49:21.334Z,51.66
2023-05-22T02:50:21.468Z,51.57
2023-05-22T02:51:21.605Z,51.72
2023-05-22T02:52:21.749Z,51.86
2023-05-22T02:53:21.904Z,51.69
2023-05-22T02:54:22.053Z,51.29
2023-05-22T02:55:22.184Z,51.50
2023-05-22T02:56:22.355Z,51.35
2023-05-22T02:57:22.490Z,51.60
2023-05-22T02:58:22.644Z,51.68
2023-05-22T02:59:22.784Z,51.80
2023-05-22T03:00:22.937Z,51.76
2023-05-22T03:01:23.225Z,51.69
2023-05-22T03:02:23.239Z,51.57
2023-05-22T03:03:23.518Z,51.82
2023-05-22T03:04:23.578Z,52.06
2023-05-22T03:05:23.702Z,51.91
2023-05-22T03:06:23.922Z,51.74
2023-05-22T03:07:24.133Z,51.81
2023-05-22T03:08:24.244Z,51.90
2023-05-22T03:09:24.431Z,51.78
2023-05-22T03:10:24.630Z,51.69
2023-05-22T03:11:24.854Z,51.70
2023-05-22T03:12:25.466Z,51.63
2023-05-22T03:13:25.216Z,51.52
2023-05-22T03:14:25.407Z,51.72
2023-05-22T03:15:25.597Z,51.87
2023-05-22T03:16:25.917Z,51.91
2023-05-22T03:17:26.028Z,51.95
2023-05-22T03:18:27.631Z,52.24
2023-05-22T03:19:26.632Z,51.95
2023-05-22T03:20:26.571Z,52.01
2023-05-22T03:21:27.162Z,51.93
2023-05-22T03:22:26.974Z,52.09
2023-05-22T03:23:27.196Z,51.63
2023-05-22T03:24:27.377Z,52.11
2023-05-22T03:25:27.571Z,52.05
2023-05-22T03:26:27.783Z,52.24
2023-05-22T03:27:27.973Z,52.19
2023-05-22T03:28:28.161Z,52.22
2023-05-22T03:29:28.370Z,52.44
2023-05-22T03:30:28.576Z,52.30
2023-05-22T03:31:28.843Z,52.59
2023-05-22T03:32:29.000Z,52.34
2023-05-22T03:33:29.228Z,52.36
2023-05-22T03:34:29.377Z,52.32
2023-05-22T03:35:29.581Z,52.27
2023-05-22T03:36:32.372Z,52.32
2023-05-22T03:37:29.947Z,52.57
2023-05-22T03:38:30.986Z,52.35
2023-05-22T03:39:30.263Z,52.41
2023-05-22T03:40:30.414Z,52.36
2023-05-22T03:41:30.577Z,52.30
2023-05-22T03:42:30.748Z,52.33
2023-05-22T03:43:30.900Z,52.08
2023-05-22T03:44:32.057Z,52.35
2023-05-22T03:45:31.251Z,52.28
2023-05-22T03:46:31.472Z,52.78
2023-05-22T03:47:31.583Z,52.46
2023-05-22T03:48:31.707Z,52.50
2023-05-22T03:49:31.855Z,52.37
2023-05-22T03:50:32.979Z,53.23
2023-05-22T03:51:32.158Z,52.44
2023-05-22T03:52:32.327Z,52.47
2023-05-22T03:53:33.035Z,52.54
2023-05-22T03:54:32.655Z,52.65
2023-05-22T03:55:32.822Z,52.73
2023-05-22T03:56:33.000Z,52.91
2023-05-22T03:57:33.227Z,53.13
2023-05-22T03:58:33.349Z,53.31
2023-05-22T03:59:33.522Z,53.30
2023-05-22T04:00:33.684Z,54.23
2023-05-22T04:01:33.855Z,53.79
2023-05-22T04:02:34.135Z,53.99
2023-05-22T04:03:34.207Z,54.15
2023-05-22T04:04:34.410Z,54.42
2023-05-22T04:05:34.534Z,53.79
2023-05-22T04:06:34.676Z,53.98
2023-05-22T04:07:34.919Z,53.64
2023-05-22T04:08:35.063Z,53.36
2023-05-22T04:09:35.273Z,53.45
2023-05-22T04:10:35.502Z,53.82
2023-05-22T04:11:35.810Z,54.64
2023-05-22T04:12:35.956Z,54.25
2023-05-22T04:13:36.149Z,54.14
2023-05-22T04:14:36.377Z,54.25
2023-05-22T04:15:36.652Z,54.06
2023-05-22T04:16:36.772Z,53.88
2023-05-22T04:17:37.012Z,53.41
2023-05-22T04:18:37.189Z,53.72
2023-05-22T04:19:37.388Z,54.20
2023-05-22T04:20:37.743Z,54.13
2023-05-22T04:21:37.791Z,54.33
2023-05-22T04:22:38.006Z,53.87
2023-05-22T04:23:38.251Z,54.31
2023-05-22T04:24:38.981Z,54.07
2023-05-22T04:25:38.602Z,53.50
2023-05-22T04:26:40.990Z,53.25
2023-05-22T04:27:38.944Z,53.07
2023-05-22T04:28:39.097Z,52.86
2023-05-22T04:29:39.259Z,53.84
2023-05-22T04:30:39.566Z,53.98
2023-05-22T04:31:39.612Z,53.05
2023-05-22T04:32:39.785Z,52.93
2023-05-22T04:33:39.905Z,52.77
2023-05-22T04:34:40.075Z,53.19
2023-05-22T04:35:40.253Z,53.34
2023-05-22T04:36:40.459Z,53.90
2023-05-22T04:37:41.036Z,54.32
2023-05-22T04:38:40.810Z,54.27
2023-05-22T04:39:40.994Z,54.08
2023-05-22T04:40:41.415Z,53.62
2023-05-22T04:41:41.993Z,53.27
2023-05-22T04:42:41.520Z,53.80
2023-05-22T04:43:41.689Z,53.63
2023-05-22T04:44:41.866Z,54.29
2023-05-22T04:45:41.996Z,53.46
2023-05-22T04:46:42.244Z,53.33
2023-05-22T04:47:42.354Z,53.33
2023-05-22T04:48:42.487Z,53.35
2023-05-22T04:49:42.675Z,53.73
2023-05-22T04:50:42.832Z,53.87
2023-05-22T04:51:42.999Z,54.10
2023-05-22T04:52:43.181Z,54.14
2023-05-22T04:53:43.345Z,54.33
2023-05-22T04:54:43.541Z,54.59
2023-05-22T04:55:43.701Z,54.67
2023-05-22T04:56:43.936Z,54.44
2023-05-22T04:57:44.026Z,54.28
2023-05-22T04:58:44.192Z,54.29
2023-05-22T04:59:44.462Z,54.23
2023-05-22T05:00:44.598Z,54.02
2023-05-22T05:01:44.898Z,54.75
2023-05-22T05:02:44.878Z,54.68
2023-05-22T05:03:45.081Z,54.54
2023-05-22T05:04:45.171Z,54.64
2023-05-22T05:05:45.328Z,55.41
2023-05-22T05:06:45.480Z,54.77
2023-05-22T05:07:47.713Z,53.76
2023-05-22T05:08:45.791Z,53.48
2023-05-22T05:09:46.056Z,55.20
2023-05-22T05:10:46.097Z,54.33
2023-05-22T05:11:46.266Z,52.45
2023-05-22T05:12:46.422Z,51.30
2023-05-22T05:13:46.585Z,51.17
2023-05-22T05:14:46.747Z,51.33
2023-05-22T05:15:46.922Z,53.69
2023-05-22T05:16:47.403Z,53.54
2023-05-22T05:17:47.244Z,53.61
2023-05-22T05:18:47.420Z,54.70
2023-05-22T05:19:48.496Z,54.29
2023-05-22T05:20:47.696Z,53.44
2023-05-22T05:21:47.849Z,54.30
2023-05-22T05:22:48.048Z,54.03
2023-05-22T05:23:48.212Z,53.58
2023-05-22T05:24:48.333Z,53.45
2023-05-22T05:25:48.480Z,53.48
2023-05-22T05:26:48.641Z,53.38
2023-05-22T05:27:48.802Z,53.42
2023-05-22T05:28:48.953Z,52.88
2023-05-22T05:29:49.133Z,52.76
2023-05-22T05:30:49.296Z,53.26
2023-05-22T05:31:49.488Z,53.39
2023-05-22T05:32:49.674Z,53.52
2023-05-22T05:33:49.816Z,53.51
2023-05-22T05:34:49.997Z,53.91
2023-05-22T05:35:50.162Z,54.44
2023-05-22T05:36:50.378Z,54.82
2023-05-22T05:37:50.519Z,54.38
2023-05-22T05:38:50.702Z,54.56
2023-05-22T05:39:50.889Z,54.59
2023-05-22T05:40:51.151Z,54.67
2023-05-22T05:41:51.247Z,54.47
2023-05-22T05:42:51.432Z,54.65
2023-05-22T05:43:51.636Z,54.61
2023-05-22T05:44:52.509Z,54.51
2023-05-22T05:45:52.010Z,54.55
2023-05-22T05:46:52.167Z,54.44
2023-05-22T05:47:52.371Z,54.48
2023-05-22T05:48:52.530Z,54.32
2023-05-22T05:49:53.014Z,54.14
2023-05-22T05:50:52.911Z,53.79
2023-05-22T05:51:53.071Z,53.92
2023-05-22T05:52:53.265Z,53.78
2023-05-22T05:53:53.433Z,53.52
2023-05-22T05:54:53.613Z,53.58
2023-05-22T05:55:53.811Z,53.42
2023-05-22T05:56:54.026Z,53.36
2023-05-22T05:57:54.265Z,53.28
2023-05-22T05:58:54.508Z,53.08
2023-05-22T05:59:55.482Z,53.27
2023-05-22T06:00:54.963Z,53.75
2023-05-22T06:01:58.972Z,53.63
2023-05-22T06:02:55.569Z,53.72
2023-05-22T06:03:55.603Z,53.38
2023-05-22T06:04:55.763Z,53.26
2023-05-22T06:05:55.926Z,53.13
2023-05-22T06:06:56.015Z,52.95
2023-05-22T06:07:56.526Z,52.69
2023-05-22T06:08:56.325Z,52.61
2023-05-22T06:09:56.490Z,52.59
2023-05-22T06:10:56.663Z,52.10
2023-05-22T06:11:56.813Z,51.88
2023-05-22T06:12:56.967Z,51.55
2023-05-22T06:13:57.153Z,51.39
2023-05-22T06:14:57.309Z,51.29
2023-05-22T06:15:59.383Z,51.19
2023-05-22T06:16:57.689Z,51.24
2023-05-22T06:17:57.840Z,51.18
2023-05-22T06:18:57.963Z,51.46
2023-05-22T06:19:58.169Z,50.96
2023-05-22T06:20:58.264Z,50.80
2023-05-22T06:21:58.418Z,50.46
2023-05-22T06:22:58.569Z,50.65
2023-05-22T06:23:58.732Z,50.35
2023-05-22T06:24:59.524Z,50.45
2023-05-22T06:25:58.992Z,50.33
2023-05-22T06:26:59.124Z,49.77
2023-05-22T06:28:00.028Z,49.71
2023-05-22T06:28:59.407Z,49.65
2023-05-22T06:29:59.533Z,49.11
2023-05-22T06:30:59.666Z,49.09
2023-05-22T06:31:59.833Z,48.75
2023-05-22T06:33:00.034Z,49.39
2023-05-22T06:34:00.132Z,49.14
2023-05-22T06:35:00.187Z,48.62
2023-05-22T06:36:00.331Z,48.44
2023-05-22T06:37:00.470Z,48.57
2023-05-22T06:38:00.593Z,48.51
2023-05-22T06:39:00.714Z,48.19
2023-05-22T06:40:00.839Z,47.91
2023-05-22T06:41:00.973Z,48.10
2023-05-22T06:42:01.117Z,47.98
2023-05-22T06:43:01.343Z,47.54
2023-05-22T06:44:01.383Z,47.60
2023-05-22T06:45:01.539Z,47.39
2023-05-22T06:46:01.737Z,47.29
2023-05-22T06:47:01.792Z,47.23
2023-05-22T06:48:02.543Z,47.26
2023-05-22T06:49:02.049Z,46.82
2023-05-22T06:50:02.252Z,46.89
2023-05-22T06:51:02.305Z,47.00
2023-05-22T06:52:05.108Z,47.23
2023-05-22T06:53:02.614Z,47.46
2023-05-22T06:54:02.672Z,46.86
2023-05-22T06:55:02.835Z,46.88
2023-05-22T06:56:02.917Z,46.98
2023-05-22T06:57:03.040Z,46.64
2023-05-22T06:58:03.225Z,46.46
2023-05-22T06:59:05.448Z,46.30
2023-05-22T07:00:03.395Z,46.30
2023-05-22T07:01:03.599Z,46.22
2023-05-22T07:02:03.619Z,46.08
2023-05-22T07:03:03.723Z,46.07
2023-05-22T07:04:03.814Z,46.26
2023-05-22T07:05:03.953Z,46.41
2023-05-22T07:06:04.153Z,46.65
2023-05-22T07:07:04.140Z,46.82
2023-05-22T07:08:04.240Z,46.47
2023-05-22T07:09:04.336Z,46.73
2023-05-22T07:10:04.454Z,45.78
2023-05-22T07:11:04.547Z,45.71
2023-05-22T07:12:04.652Z,45.96
2023-05-22T07:13:04.745Z,46.04
2023-05-22T07:14:04.826Z,45.18
2023-05-22T07:15:04.963Z,45.06
2023-05-22T07:16:05.057Z,44.83
2023-05-22T07:17:05.135Z,44.48
2023-05-22T07:18:05.293Z,44.34
2023-05-22T07:19:05.418Z,44.57
2023-05-22T07:20:05.435Z,44.77
2023-05-22T07:21:05.576Z,44.21
2023-05-22T07:22:05.630Z,44.09
2023-05-22T07:23:05.759Z,44.04
2023-05-22T07:24:05.808Z,43.96
2023-05-22T07:25:05.897Z,43.81
2023-05-22T07:26:05.983Z,43.51
2023-05-22T07:27:06.090Z,43.51
2023-05-22T07:28:09.341Z,43.39
2023-05-22T07:29:06.261Z,43.94
2023-05-22T07:30:06.342Z,43.74
2023-05-22T07:31:06.490Z,43.59
2023-05-22T07:32:06.593Z,43.55
2023-05-22T07:33:06.668Z,43.86
2023-05-22T07:34:06.683Z,44.14
2023-05-22T07:35:06.773Z,42.90
2023-05-22T07:36:06.907Z,43.06
2023-05-22T07:37:06.949Z,42.86
2023-05-22T07:38:07.040Z,43.11
2023-05-22T07:39:07.110Z,42.73
2023-05-22T07:40:07.194Z,42.72
2023-05-22T07:41:07.277Z,42.90
2023-05-22T07:42:07.353Z,42.86
2023-05-22T07:43:07.436Z,42.61
2023-05-22T07:44:07.505Z,42.19
2023-05-22T07:45:07.578Z,41.41
2023-05-22T07:46:07.700Z,41.22
2023-05-22T07:47:07.743Z,40.92
2023-05-22T07:48:07.839Z,40.96
2023-05-22T07:49:07.862Z,41.71
2023-05-22T07:50:08.020Z,40.90
2023-05-22T07:51:08.002Z,41.13
2023-05-22T07:52:08.069Z,40.53
2023-05-22T07:53:08.144Z,40.11
2023-05-22T07:54:08.253Z,39.94
2023-05-22T07:55:08.284Z,39.72
2023-05-22T07:56:08.347Z,39.94
2023-05-22T07:57:08.435Z,39.53
2023-05-22T07:58:08.501Z,39.22
2023-05-22T07:59:08.560Z,39.39
2023-05-22T08:00:08.630Z,39.90
2023-05-22T08:02:08.822Z,39.79
2023-05-22T08:03:08.966Z,39.65
2023-05-22T08:04:09.180Z,39.60
2023-05-22T08:05:08.962Z,39.58
2023-05-22T08:06:09.043Z,39.74
2023-05-22T08:07:09.042Z,39.90
2023-05-22T08:08:09.157Z,39.24
2023-05-22T08:09:10.042Z,39.14
2023-05-22T08:10:09.193Z,41.05
2023-05-22T08:11:09.388Z,40.46
2023-05-22T08:12:09.328Z,40.37
2023-05-22T08:13:09.380Z,40.53
2023-05-22T08:14:09.523Z,40.38
2023-05-22T08:15:09.472Z,41.50
2023-05-22T08:16:09.591Z,41.41
2023-05-22T08:17:09.629Z,40.82
2023-05-22T08:18:09.648Z,40.55
2023-05-22T08:19:09.732Z,39.16
2023-05-22T08:20:09.751Z,39.06
2023-05-22T08:21:09.813Z,39.02
2023-05-22T08:22:09.766Z,39.22
2023-05-22T08:23:09.812Z,39.48
2023-05-22T08:24:09.875Z,39.11
2023-05-22T08:25:09.915Z,39.14
2023-05-22T08:26:09.939Z,39.18
2023-05-22T08:27:10.000Z,39.42
2023-05-22T08:28:10.025Z,39.60
2023-05-22T08:29:10.060Z,40.30
2023-05-22T08:30:11.052Z,40.29
2023-05-22T08:31:10.158Z,39.58
2023-05-22T08:32:10.218Z,39.33
2023-05-22T08:33:10.241Z,38.98
2023-05-22T08:34:10.231Z,38.96
2023-05-22T08:35:10.271Z,39.05
2023-05-22T08:36:10.304Z,38.75
2023-05-22T08:37:10.354Z,38.44
2023-05-22T08:38:10.565Z,37.66
2023-05-22T08:39:10.449Z,37.96
2023-05-22T08:40:10.504Z,38.86
2023-05-22T08:41:10.545Z,38.15
2023-05-22T08:42:10.579Z,38.86
2023-05-22T08:43:10.615Z,39.01
2023-05-22T08:44:10.726Z,39.20
2023-05-22T08:45:10.683Z,37.73
2023-05-22T08:46:10.721Z,37.68
2023-05-22T08:47:10.836Z,37.83
2023-05-22T08:48:10.855Z,37.75
2023-05-22T08:49:10.808Z,38.56
2023-05-22T08:50:10.826Z,37.41
2023-05-22T08:51:10.859Z,37.81
2023-05-22T08:52:10.887Z,38.06
2023-05-22T08:53:10.906Z,37.48
2023-05-22T08:54:11.072Z,38.53
2023-05-22T08:55:11.033Z,39.14
2023-05-22T08:56:11.123Z,39.01
2023-05-22T08:57:11.176Z,38.93
2023-05-22T08:58:11.281Z,38.98
2023-05-22T08:59:11.316Z,37.95
2023-05-22T09:00:12.346Z,37.36
2023-05-22T09:01:11.388Z,37.58
2023-05-22T09:02:11.388Z,37.34
2023-05-22T09:03:11.517Z,37.96
2023-05-22T09:04:11.581Z,38.34
2023-05-22T09:05:11.440Z,38.72
2023-05-22T09:06:11.469Z,37.13
2023-05-22T09:07:11.560Z,37.55
2023-05-22T09:08:19.863Z,37.51
2023-05-22T09:09:12.591Z,37.51
2023-05-22T09:10:11.567Z,37.71
2023-05-22T09:11:12.583Z,38.12
2023-05-22T09:12:11.591Z,38.05
2023-05-22T09:13:11.625Z,36.91
2023-05-22T09:14:11.717Z,36.82
2023-05-22T09:15:12.576Z,35.81
2023-05-22T09:16:11.711Z,35.78
2023-05-22T09:17:11.728Z,36.01
2023-05-22T09:18:12.089Z,36.71
2023-05-22T09:19:11.739Z,36.22
2023-05-22T09:20:11.870Z,36.49
2023-05-22T09:21:25.986Z,36.50
2023-05-22T09:22:12.763Z,36.49
2023-05-22T09:23:12.569Z,36.43
2023-05-22T09:24:12.579Z,36.82
2023-05-22T09:25:11.800Z,36.25
2023-05-22T09:26:11.805Z,36.17
2023-05-22T09:27:11.892Z,37.12
2023-05-22T09:28:11.908Z,36.68
2023-05-22T09:29:11.849Z,37.11
2023-05-22T09:30:11.861Z,36.07
2023-05-22T09:31:11.886Z,36.13
2023-05-22T09:32:11.882Z,36.01
2023-05-22T09:33:13.154Z,36.54
2023-05-22T09:34:11.898Z,36.89
2023-05-22T09:35:11.915Z,36.42
2023-05-22T09:36:11.911Z,37.08
2023-05-22T09:37:11.907Z,37.97
2023-05-22T09:38:12.441Z,37.09
2023-05-22T09:39:11.911Z,36.99
2023-05-22T09:40:11.919Z,36.76
2023-05-22T09:41:11.988Z,36.81
2023-05-22T09:42:11.909Z,36.85
2023-05-22T09:43:12.913Z,35.90
2023-05-22T09:44:11.919Z,35.29
2023-05-22T09:45:11.904Z,35.34
2023-05-22T09:46:11.930Z,36.16
2023-05-22T09:47:11.916Z,35.97
2023-05-22T09:48:11.973Z,35.88
2023-05-22T09:49:15.048Z,36.43
2023-05-22T09:50:11.926Z,34.98
2023-05-22T09:51:12.003Z,34.86
2023-05-22T09:52:11.965Z,34.08
2023-05-22T09:53:11.938Z,34.06
2023-05-22T09:54:11.958Z,34.46
2023-05-22T09:55:11.952Z,34.26
2023-05-22T09:56:12.037Z,33.93
2023-05-22T09:57:11.967Z,32.51
2023-05-22T09:58:11.999Z,33.47
2023-05-22T09:59:11.925Z,33.42
2023-05-22T10:00:11.918Z,32.18
2023-05-22T10:01:11.915Z,33.62
2023-05-22T10:02:11.952Z,34.84
2023-05-22T10:03:11.928Z,33.94
2023-05-22T10:04:11.995Z,33.36
2023-05-22T10:05:11.938Z,33.06
2023-05-22T10:06:11.928Z,34.66
2023-05-22T10:07:11.918Z,34.56
2023-05-22T10:08:11.973Z,34.70
2023-05-22T10:09:11.904Z,33.97
2023-05-22T10:10:11.923Z,35.86
2023-05-22T10:11:12.103Z,35.14
2023-05-22T10:12:11.927Z,34.68
2023-05-22T10:13:12.042Z,35.30
2023-05-22T10:14:11.905Z,35.37
2023-05-22T10:15:12.636Z,34.52
2023-05-22T10:16:11.991Z,35.05
2023-05-22T10:17:11.934Z,34.73
2023-05-22T10:18:11.972Z,33.49
2023-05-22T10:19:12.187Z,32.89
2023-05-22T10:20:11.934Z,33.04
2023-05-22T10:21:11.930Z,34.68
2023-05-22T10:22:11.928Z,34.84
2023-05-22T10:23:11.932Z,33.56
2023-05-22T10:24:12.018Z,35.24
2023-05-22T10:25:11.928Z,32.51
2023-05-22T10:26:11.923Z,33.91
2023-05-22T10:27:11.934Z,33.17
2023-05-22T10:28:11.910Z,31.37
2023-05-22T10:29:11.921Z,31.57
2023-05-22T10:30:12.114Z,31.81
2023-05-22T10:31:11.909Z,31.79
2023-05-22T10:32:11.906Z,31.41
2023-05-22T10:33:11.946Z,30.18
2023-05-22T10:34:11.956Z,30.20
2023-05-22T10:35:11.889Z,30.51
2023-05-22T10:36:11.889Z,31.03
2023-05-22T10:37:18.514Z,32.47
2023-05-22T10:38:12.869Z,32.92
2023-05-22T10:39:12.124Z,32.58
2023-05-22T10:40:11.936Z,32.33
2023-05-22T10:41:11.871Z,31.44
2023-05-22T10:42:11.824Z,30.47
2023-05-22T10:43:11.819Z,30.12
2023-05-22T10:44:11.785Z,30.23
2023-05-22T10:45:11.777Z,29.64
2023-05-22T10:46:11.910Z,29.63
2023-05-22T10:47:11.881Z,29.53
2023-05-22T10:48:11.761Z,30.01
2023-05-22T10:49:12.733Z,29.94
2023-05-22T10:50:11.775Z,30.04
2023-05-22T10:51:11.700Z,29.53
2023-05-22T10:52:11.679Z,30.41
2023-05-22T10:53:11.662Z,33.65
2023-05-22T10:54:11.642Z,31.00
2023-05-22T10:55:11.619Z,30.46
2023-05-22T10:56:12.211Z,30.45
2023-05-22T10:57:11.608Z,29.69
2023-05-22T10:58:11.604Z,30.09
2023-05-22T10:59:11.481Z,29.13
2023-05-22T11:00:11.479Z,29.91
2023-05-22T11:01:11.504Z,31.88
2023-05-22T11:02:11.664Z,30.47
2023-05-22T11:03:17.808Z,30.72
2023-05-22T11:04:12.642Z,30.18
2023-05-22T11:05:11.502Z,30.22
2023-05-22T11:06:11.416Z,28.40
2023-05-22T11:07:11.398Z,31.55
2023-05-22T11:08:11.356Z,30.25
2023-05-22T11:09:11.324Z,29.66
2023-05-22T11:10:11.318Z,30.62
2023-05-22T11:11:11.273Z,30.57
2023-05-22T11:12:11.643Z,30.56
2023-05-22T11:13:11.221Z,30.53
2023-05-22T11:14:11.190Z,29.14
2023-05-22T11:15:11.161Z,28.88
2023-05-22T11:16:11.137Z,29.38
2023-05-22T11:17:11.778Z,30.00
2023-05-22T11:18:11.130Z,29.94
2023-05-22T11:19:22.819Z,28.54
2023-05-22T11:20:12.098Z,30.17
2023-05-22T11:21:10.983Z,29.25
2023-05-22T11:22:10.948Z,27.27
2023-05-22T11:23:10.955Z,28.36
2023-05-22T11:24:10.883Z,29.56
2023-05-22T11:25:10.873Z,28.65
2023-05-22T11:26:10.805Z,27.76
2023-05-22T11:27:10.766Z,27.84
2023-05-22T11:28:10.862Z,28.17
2023-05-22T11:29:10.692Z,27.74
2023-05-22T11:30:10.670Z,26.04
2023-05-22T11:31:10.657Z,27.61
2023-05-22T11:32:10.566Z,27.26
2023-05-22T11:33:10.618Z,27.80
2023-05-22T11:34:10.497Z,27.34
2023-05-22T11:35:10.474Z,28.03
2023-05-22T11:36:10.419Z,27.46
2023-05-22T11:37:10.377Z,27.81
2023-05-22T11:38:10.411Z,27.10
2023-05-22T11:39:10.296Z,27.02
2023-05-22T11:40:10.276Z,27.55
2023-05-22T11:41:10.213Z,27.59
2023-05-22T11:42:10.175Z,26.91
2023-05-22T11:43:10.129Z,27.28
2023-05-22T11:44:10.179Z,26.22
2023-05-22T11:45:10.059Z,26.24
2023-05-22T11:46:09.998Z,26.38
2023-05-22T11:47:09.963Z,26.79
2023-05-22T11:48:10.006Z,25.98
2023-05-22T11:49:09.949Z,26.02
2023-05-22T11:50:09.941Z,25.43
2023-05-22T11:51:09.896Z,23.60
2023-05-22T11:52:09.948Z,23.99
2023-05-22T11:53:10.083Z,25.22
2023-05-22T11:54:10.102Z,25.41
2023-05-22T11:55:10.276Z,25.32
2023-05-22T11:56:10.434Z,24.94
2023-05-22T11:57:10.572Z,23.11
2023-05-22T11:58:10.587Z,23.98
2023-05-22T11:59:10.722Z,23.75
2023-05-22T12:00:11.116Z,24.45
2023-05-22T12:01:11.005Z,24.16
2023-05-22T12:02:11.045Z,22.67
2023-05-22T12:03:11.196Z,23.77
2023-05-22T12:04:11.506Z,23.47
2023-05-22T12:05:11.174Z,23.04
2023-05-22T12:06:11.230Z,22.69
2023-05-22T12:07:11.102Z,23.04
2023-05-22T12:08:11.122Z,22.33
2023-05-22T12:09:10.996Z,22.25
2023-05-22T12:10:11.043Z,21.65
2023-05-22T12:11:10.949Z,20.82
2023-05-22T12:12:11.001Z,21.02
2023-05-22T12:13:11.112Z,22.40
2023-05-22T12:14:11.208Z,21.73
2023-05-22T12:15:11.327Z,21.12
2023-05-22T12:16:11.538Z,20.72
2023-05-22T12:17:11.527Z,20.43
2023-05-22T12:18:11.869Z,20.63
2023-05-22T12:19:11.805Z,19.80
2023-05-22T12:20:11.780Z,20.65
2023-05-22T12:21:11.905Z,21.12
2023-05-22T12:22:12.049Z,20.66
2023-05-22T12:23:12.115Z,21.83
2023-05-22T12:24:12.219Z,22.54
2023-05-22T12:25:12.304Z,21.08
2023-05-22T12:26:12.352Z,21.95
2023-05-22T12:27:12.231Z,23.72
2023-05-22T12:28:12.183Z,23.12
2023-05-22T12:29:12.206Z,22.70
2023-05-22T12:30:12.149Z,22.27
2023-05-22T12:31:12.071Z,21.81
2023-05-22T12:32:12.192Z,22.00
2023-05-22T12:33:11.995Z,21.37
2023-05-22T12:34:11.883Z,21.17
2023-05-22T12:35:11.854Z,21.16
2023-05-22T12:36:11.742Z,21.23
2023-05-22T12:37:11.626Z,20.59
2023-05-22T12:38:11.543Z,20.82
2023-05-22T12:39:11.414Z,20.76
2023-05-22T12:40:11.350Z,21.02
2023-05-22T12:41:11.209Z,21.03
2023-05-22T12:42:11.095Z,20.17
2023-05-22T12:43:11.010Z,18.76
2023-05-22T12:44:10.931Z,18.49
2023-05-22T12:45:10.886Z,18.27
2023-05-22T12:46:10.760Z,18.52
2023-05-22T12:47:10.622Z,19.71
2023-05-22T12:48:10.655Z,19.90
2023-05-22T12:49:10.429Z,19.91
2023-05-22T12:50:10.375Z,19.22
2023-05-22T12:51:10.371Z,18.55
2023-05-22T12:52:10.276Z,18.66
2023-05-22T12:53:10.174Z,17.85
2023-05-22T12:54:10.105Z,18.98
2023-05-22T12:55:10.069Z,18.34